sensor_id;sensor_type;location;lat;lon;timestamp;pressure;altitude;pressure_sealevel;temperature;humidity
5872;BME280;2962;51.312;7.378;2023-05-08T00:00:16;97914.75;;;12.17;100.00
5872;BME280;2962;51.312;7.378;2023-05-08T00:02:42;97897.47;;;12.10;100.00
5872;BME280;2962;51.312;7.378;2023-05-08T00:05:07;97908.06;;;12.11;100.00
5872;BME280;2962;51.312;7.378;2023-05-08T00:07:34;97882.13;;;12.02;100.00
5872;BME280;2962;51.312;7.378;2023-05-08T00:10:00;97899.44;;;12.09;100.00
5872;BME280;2962;51.312;7.378;2023-05-08T00:12:25;97905.31;;;12.11;100.00
5872;BME280;2962;51.312;7.378;2023-05-08T00:14:50;97910.00;;;12.11;100.00
5872;BME280;2962;51.312;7.378;2023-05-08T00:17:16;97913.09;;;12.09;100.00
5872;BME280;2962;51.312;7.378;2023-05-08T00:19:41;97913.56;;;12.15;100.00
5872;BME280;2962;51.312;7.378;2023-05-08T00:22:06;97910.78;;;12.11;100.00
5872;BME280;2962;51.312;7.378;2023-05-08T00:24:32;97912.47;;;12.19;100.00
5872;BME280;2962;51.312;7.378;2023-05-08T00:26:57;97908.78;;;12.08;100.00
5872;BME280;2962;51.312;7.378;2023-05-08T00:29:22;97911.13;;;12.10;100.00
5872;BME280;2962;51.312;7.378;2023-05-08T00:31:48;97920.59;;;12.16;100.00
5872;BME280;2962;51.312;7.378;2023-05-08T00:34:13;97917.44;;;12.14;100.00
5872;BME280;2962;51.312;7.378;2023-05-08T00:36:38;97916.66;;;12.13;100.00
5872;BME280;2962;51.312;7.378;2023-05-08T00:39:03;97915.09;;;12.12;100.00
5872;BME280;2962;51.312;7.378;2023-05-08T00:41:29;97921.34;;;12.13;100.00
5872;BME280;2962;51.312;7.378;2023-05-08T00:43:54;97922.06;;;12.10;100.00
5872;BME280;2962;51.312;7.378;2023-05-08T00:46:19;97920.22;;;12.17;100.00
5872;BME280;2962;51.312;7.378;2023-05-08T00:48:45;97924.84;;;12.13;100.00
5872;BME280;2962;51.312;7.378;2023-05-08T00:51:11;97924.38;;;12.08;100.00
5872;BME280;2962;51.312;7.378;2023-05-08T00:53:38;97911.13;;;12.10;100.00
5872;BME280;2962;51.312;7.378;2023-05-08T00:56:05;97922.84;;;12.10;100.00
5872;BME280;2962;51.312;7.378;2023-05-08T00:58:31;97915.88;;;12.13;100.00
5872;BME280;2962;51.312;7.378;2023-05-08T01:00:57;97922.56;;;12.15;100.00
5872;BME280;2962;51.312;7.378;2023-05-08T01:03:24;97918.97;;;12.11;100.00
5872;BME280;2962;51.312;7.378;2023-05-08T01:05:49;97937.78;;;12.16;100.00
5872;BME280;2962;51.312;7.378;2023-05-08T01:08:14;97922.91;;;12.14;100.00
5872;BME280;2962;51.312;7.378;2023-05-08T01:13:19;97922.84;;;12.10;100.00
5872;BME280;2962;51.312;7.378;2023-05-08T01:15:51;97918.13;;;12.07;100.00
5872;BME280;2962;51.312;7.378;2023-05-08T01:18:22;97921.78;;;12.15;100.00
5872;BME280;2962;51.312;7.378;2023-05-08T01:26:25;97927.28;;;12.18;100.00
5872;BME280;2962;51.312;7.378;2023-05-08T01:32:13;97933.47;;;12.15;100.00
5872;BME280;2962;51.312;7.378;2023-05-08T01:34:45;97925.94;;;12.09;100.00
5872;BME280;2962;51.312;7.378;2023-05-08T01:37:16;97941.28;;;12.17;100.00
5872;BME280;2962;51.312;7.378;2023-05-08T01:40:08;97936.22;;;12.15;100.00
5872;BME280;2962;51.312;7.378;2023-05-08T01:42:57;97928.00;;;12.15;100.00
5872;BME280;2962;51.312;7.378;2023-05-08T01:45:31;97940.88;;;12.15;100.00
5872;BME280;2962;51.312;7.378;2023-05-08T01:48:03;97931.41;;;12.09;100.00
5872;BME280;2962;51.312;7.378;2023-05-08T01:50:37;97940.41;;;12.09;100.00
5872;BME280;2962;51.312;7.378;2023-05-08T01:53:10;97935.72;;;12.10;100.00
5872;BME280;2962;51.312;7.378;2023-05-08T01:55:39;97934.59;;;12.11;100.00
5872;BME280;2962;51.312;7.378;2023-05-08T01:58:08;97932.94;;;12.06;100.00
5872;BME280;2962;51.312;7.378;2023-05-08T02:00:37;97937.66;;;12.09;100.00
5872;BME280;2962;51.312;7.378;2023-05-08T02:03:05;97934.16;;;12.09;100.00
5872;BME280;2962;51.312;7.378;2023-05-08T02:05:33;97933.72;;;12.07;100.00
5872;BME280;2962;51.312;7.378;2023-05-08T02:08:01;97937.66;;;12.09;100.00
5872;BME280;2962;51.312;7.378;2023-05-08T02:10:27;97929.84;;;12.08;100.00
5872;BME280;2962;51.312;7.378;2023-05-08T02:12:54;97937.66;;;12.09;100.00
5872;BME280;2962;51.312;7.378;2023-05-08T02:15:20;97924.25;;;12.01;100.00
5872;BME280;2962;51.312;7.378;2023-05-08T02:17:47;97942.34;;;12.09;100.00
5872;BME280;2962;51.312;7.378;2023-05-08T02:20:15;97937.53;;;12.02;100.00
5872;BME280;2962;51.312;7.378;2023-05-08T02:22:44;97930.06;;;11.99;100.00
5872;BME280;2962;51.312;7.378;2023-05-08T02:25:14;97933.72;;;12.07;100.00
5872;BME280;2962;51.312;7.378;2023-05-08T02:27:47;97945.00;;;12.05;100.00
5872;BME280;2962;51.312;7.378;2023-05-08T02:30:14;97944.59;;;12.03;100.00
5872;BME280;2962;51.312;7.378;2023-05-08T02:32:45;97942.22;;;12.02;100.00
5872;BME280;2962;51.312;7.378;2023-05-08T02:35:12;97941.38;;;11.97;100.00
5872;BME280;2962;51.312;7.378;2023-05-08T02:37:41;97937.81;;;11.93;100.00
5872;BME280;2962;51.312;7.378;2023-05-08T02:40:08;97924.41;;;11.85;100.00
5872;BME280;2962;51.312;7.378;2023-05-08T02:42:34;97944.47;;;11.96;100.00
5872;BME280;2962;51.312;7.378;2023-05-08T02:45:00;97939.25;;;11.87;100.00
5872;BME280;2962;51.312;7.378;2023-05-08T02:47:51;97951.06;;;11.95;100.00
5872;BME280;2962;51.312;7.378;2023-05-08T02:50:20;97945.94;;;11.90;100.00
5872;BME280;2962;51.312;7.378;2023-05-08T02:52:50;97952.97;;;11.91;100.00
5872;BME280;2962;51.312;7.378;2023-05-08T02:55:33;97948.72;;;11.93;100.00
5872;BME280;2962;51.312;7.378;2023-05-08T02:58:19;97941.13;;;11.83;100.00
5872;BME280;2962;51.312;7.378;2023-05-08T03:00:52;97941.97;;;11.87;100.00
5872;BME280;2962;51.312;7.378;2023-05-08T03:03:25;97945.09;;;11.86;100.00
5872;BME280;2962;51.312;7.378;2023-05-08T03:05:53;97951.38;;;11.90;100.00
5872;BME280;2962;51.312;7.378;2023-05-08T03:08:25;97943.56;;;11.88;100.00
5872;BME280;2962;51.312;7.378;2023-05-08T03:10:54;97940.31;;;11.83;100.00
5872;BME280;2962;51.312;7.378;2023-05-08T03:13:20;97946.66;;;11.87;100.00
5872;BME280;2962;51.312;7.378;2023-05-08T03:15:54;97944.22;;;11.82;100.00
5872;BME280;2962;51.312;7.378;2023-05-08T03:18:23;97941.47;;;11.82;100.00
5872;BME280;2962;51.312;7.378;2023-05-08T03:20:53;97948.50;;;11.83;100.00
5872;BME280;2962;51.312;7.378;2023-05-08T03:23:20;97951.22;;;11.83;100.00
5872;BME280;2962;51.312;7.378;2023-05-08T03:25:47;97939.84;;;11.77;100.00
5872;BME280;2962;51.312;7.378;2023-05-08T03:28:13;97946.16;;;11.81;100.00
5872;BME280;2962;51.312;7.378;2023-05-08T03:30:40;97942.56;;;11.77;100.00
5872;BME280;2962;51.312;7.378;2023-05-08T03:33:07;97950.44;;;11.82;100.00
5872;BME280;2962;51.312;7.378;2023-05-08T03:35:37;97952.41;;;11.82;100.00
5872;BME280;2962;51.312;7.378;2023-05-08T03:38:03;97950.44;;;11.82;100.00
5872;BME280;2962;51.312;7.378;2023-05-08T03:40:29;97946.88;;;11.78;100.00
5872;BME280;2962;51.312;7.378;2023-05-08T03:42:55;97951.22;;;11.83;100.00
5872;BME280;2962;51.312;7.378;2023-05-08T03:45:22;97942.19;;;11.79;100.00
5872;BME280;2962;51.312;7.378;2023-05-08T03:47:50;97933.16;;;11.74;100.00
5872;BME280;2962;51.312;7.378;2023-05-08T03:50:17;97934.72;;;11.76;100.00
5872;BME280;2962;51.312;7.378;2023-05-08T03:52:43;97944.94;;;11.79;100.00
5872;BME280;2962;51.312;7.378;2023-05-08T03:55:08;97950.81;;;11.81;100.00
5872;BME280;2962;51.312;7.378;2023-05-08T03:57:48;97940.63;;;11.78;100.00
5872;BME280;2962;51.312;7.378;2023-05-08T04:00:23;97937.13;;;11.77;100.00
5872;BME280;2962;51.312;7.378;2023-05-08T04:03:09;97943.34;;;11.78;100.00
5872;BME280;2962;51.312;7.378;2023-05-08T04:05:57;97930.81;;;11.73;100.00
5872;BME280;2962;51.312;7.378;2023-05-08T04:08:28;97942.56;;;11.77;100.00
5872;BME280;2962;51.312;7.378;2023-05-08T04:11:07;97941.00;;;11.76;100.00
5872;BME280;2962;51.312;7.378;2023-05-08T04:13:42;97939.78;;;11.73;100.00
5872;BME280;2962;51.312;7.378;2023-05-08T04:16:19;97946.47;;;11.76;100.00
5872;BME280;2962;51.312;7.378;2023-05-08T04:18:46;97946.81;;;11.74;100.00
5872;BME280;2962;51.312;7.378;2023-05-08T04:21:18;97938.56;;;11.71;100.00
5872;BME280;2962;51.312;7.378;2023-05-08T04:23:45;97944.06;;;11.74;100.00
5872;BME280;2962;51.312;7.378;2023-05-08T04:26:13;97940.94;;;11.72;100.00
5872;BME280;2962;51.312;7.378;2023-05-08T04:28:40;97946.81;;;11.74;100.00
5872;BME280;2962;51.312;7.378;2023-05-08T04:31:06;97946.41;;;11.72;100.00
5872;BME280;2962;51.312;7.378;2023-05-08T04:33:33;97947.47;;;11.68;100.00
5872;BME280;2962;51.312;7.378;2023-05-08T04:36:02;97960.03;;;11.72;100.00
5872;BME280;2962;51.312;7.378;2023-05-08T04:38:28;97955.00;;;11.74;100.00
5872;BME280;2962;51.312;7.378;2023-05-08T04:40:53;97949.41;;;11.67;100.00
5872;BME280;2962;51.312;7.378;2023-05-08T04:43:19;97962.78;;;11.72;100.00
5872;BME280;2962;51.312;7.378;2023-05-08T04:45:44;97958.75;;;11.66;100.00
5872;BME280;2962;51.312;7.378;2023-05-08T04:48:10;97961.19;;;11.71;100.00
5872;BME280;2962;51.312;7.378;2023-05-08T04:50:35;97966.63;;;11.71;100.00
5872;BME280;2962;51.312;7.378;2023-05-08T04:53:00;97960.38;;;11.71;100.00
5872;BME280;2962;51.312;7.378;2023-05-08T04:55:26;97948.16;;;11.61;100.00
5872;BME280;2962;51.312;7.378;2023-05-08T04:57:51;97941.53;;;11.62;100.00
5872;BME280;2962;51.312;7.378;2023-05-08T05:00:17;97946.63;;;11.64;100.00
5872;BME280;2962;51.312;7.378;2023-05-08T05:02:42;97956.50;;;11.72;100.00
5872;BME280;2962;51.312;7.378;2023-05-08T05:05:07;97959.09;;;11.84;100.00
5872;BME280;2962;51.312;7.378;2023-05-08T05:07:33;97970.94;;;11.92;100.00
5872;BME280;2962;51.312;7.378;2023-05-08T05:09:59;97972.63;;;12.00;100.00
5872;BME280;2962;51.312;7.378;2023-05-08T05:12:24;97958.97;;;12.00;100.00
5872;BME280;2962;51.312;7.378;2023-05-08T05:14:49;97960.88;;;11.96;100.00
5872;BME280;2962;51.312;7.378;2023-05-08T05:17:15;97962.44;;;11.97;100.00
5872;BME280;2962;51.312;7.378;2023-05-08T05:19:40;97971.03;;;11.99;100.00
5872;BME280;2962;51.312;7.378;2023-05-08T05:22:05;97985.56;;;12.03;100.00
5872;BME280;2962;51.312;7.378;2023-05-08T05:24:32;97986.41;;;12.07;100.00
5872;BME280;2962;51.312;7.378;2023-05-08T05:27:00;97979.00;;;12.08;100.00
5872;BME280;2962;51.312;7.378;2023-05-08T05:29:25;97980.94;;;12.07;100.00
5872;BME280;2962;51.312;7.378;2023-05-08T05:31:51;97985.25;;;12.08;100.00
5872;BME280;2962;51.312;7.378;2023-05-08T05:34:16;97976.28;;;12.08;100.00
5872;BME280;2962;51.312;7.378;2023-05-08T05:36:41;97980.25;;;12.14;100.00
5872;BME280;2962;51.312;7.378;2023-05-08T05:39:06;97980.81;;;12.23;100.00
5872;BME280;2962;51.312;7.378;2023-05-08T05:41:32;97978.44;;;12.21;100.00
5872;BME280;2962;51.312;7.378;2023-05-08T05:43:58;97979.41;;;12.33;100.00
5872;BME280;2962;51.312;7.378;2023-05-08T05:46:23;97987.38;;;12.45;100.00
5872;BME280;2962;51.312;7.378;2023-05-08T05:48:56;98002.78;;;12.57;100.00
5872;BME280;2962;51.312;7.378;2023-05-08T05:51:21;97998.66;;;12.66;100.00
5872;BME280;2962;51.312;7.378;2023-05-08T05:53:46;98003.38;;;12.69;100.00
5872;BME280;2962;51.312;7.378;2023-05-08T05:56:11;98008.59;;;12.78;100.00
5872;BME280;2962;51.312;7.378;2023-05-08T05:58:37;98004.75;;;12.83;100.00
5872;BME280;2962;51.312;7.378;2023-05-08T06:01:04;97993.84;;;12.86;100.00
5872;BME280;2962;51.312;7.378;2023-05-08T06:03:29;98014.94;;;12.86;100.00
5872;BME280;2962;51.312;7.378;2023-05-08T06:05:54;98009.06;;;12.84;100.00
5872;BME280;2962;51.312;7.378;2023-05-08T06:08:20;97998.81;;;12.77;100.00
5872;BME280;2962;51.312;7.378;2023-05-08T06:10:45;98010.63;;;12.85;100.00
5872;BME280;2962;51.312;7.378;2023-05-08T06:13:10;98009.38;;;12.79;100.00
5872;BME280;2962;51.312;7.378;2023-05-08T06:15:36;98003.34;;;12.66;100.00
5872;BME280;2962;51.312;7.378;2023-05-08T06:18:02;98012.75;;;12.68;100.00
5872;BME280;2962;51.312;7.378;2023-05-08T06:20:27;98018.25;;;12.72;100.00
5872;BME280;2962;51.312;7.378;2023-05-08T06:22:52;98006.41;;;12.64;100.00
5872;BME280;2962;51.312;7.378;2023-05-08T06:25:18;98024.59;;;12.76;100.00
5872;BME280;2962;51.312;7.378;2023-05-08T06:27:43;98019.56;;;12.82;100.00
5872;BME280;2962;51.312;7.378;2023-05-08T06:30:09;98025.88;;;12.86;100.00
5872;BME280;2962;51.312;7.378;2023-05-08T06:32:35;98024.03;;;12.93;100.00
5872;BME280;2962;51.312;7.378;2023-05-08T06:35:00;98026.09;;;13.00;100.00
5872;BME280;2962;51.312;7.378;2023-05-08T06:37:25;98015.94;;;13.01;100.00
5872;BME280;2962;51.312;7.378;2023-05-08T06:39:51;98008.91;;;13.00;100.00
5872;BME280;2962;51.312;7.378;2023-05-08T06:42:16;98014.72;;;12.98;100.00
5872;BME280;2962;51.312;7.378;2023-05-08T06:44:41;98014.72;;;12.98;100.00
5872;BME280;2962;51.312;7.378;2023-05-08T06:47:07;98017.56;;;13.05;100.00
5872;BME280;2962;51.312;7.378;2023-05-08T06:49:35;98017.56;;;13.05;100.00
5872;BME280;2962;51.312;7.378;2023-05-08T06:52:01;98016.78;;;13.05;100.00
5872;BME280;2962;51.312;7.378;2023-05-08T06:54:26;98013.19;;;13.01;100.00
5872;BME280;2962;51.312;7.378;2023-05-08T06:56:52;98026.69;;;13.16;100.00
5872;BME280;2962;51.312;7.378;2023-05-08T06:59:18;98018.91;;;13.18;100.00
5872;BME280;2962;51.312;7.378;2023-05-08T07:01:43;98019.88;;;13.03;100.00
5872;BME280;2962;51.312;7.378;2023-05-08T07:04:09;98034.34;;;13.04;100.00
5872;BME280;2962;51.312;7.378;2023-05-08T07:06:34;98021.78;;;12.99;100.00
5872;BME280;2962;51.312;7.378;2023-05-08T07:08:59;98030.41;;;13.01;100.00
5872;BME280;2962;51.312;7.378;2023-05-08T07:11:25;98032.72;;;12.99;100.00
5872;BME280;2962;51.312;7.378;2023-05-08T07:13:50;98028.41;;;12.98;100.00
5872;BME280;2962;51.312;7.378;2023-05-08T07:16:16;98021.84;;;13.06;100.00
5872;BME280;2962;51.312;7.378;2023-05-08T07:18:42;98018.81;;;13.11;100.00
5872;BME280;2962;51.312;7.378;2023-05-08T07:21:07;98017.69;;;13.16;100.00
5872;BME280;2962;51.312;7.378;2023-05-08T07:23:33;98011.06;;;13.17;100.00
5872;BME280;2962;51.312;7.378;2023-05-08T07:25:58;98011.53;;;13.23;100.00
5872;BME280;2962;51.312;7.378;2023-05-08T07:28:24;98004.59;;;13.29;100.00
5872;BME280;2962;51.312;7.378;2023-05-08T07:30:49;98006.78;;;13.46;100.00
5872;BME280;2962;51.312;7.378;2023-05-08T07:33:14;98010.81;;;13.59;100.00
5872;BME280;2962;51.312;7.378;2023-05-08T07:35:40;98014.63;;;13.85;100.00
5872;BME280;2962;51.312;7.378;2023-05-08T07:38:06;98008.63;;;13.76;100.00
5872;BME280;2962;51.312;7.378;2023-05-08T07:40:32;98010.56;;;13.72;100.00
5872;BME280;2962;51.312;7.378;2023-05-08T07:42:57;98006.72;;;13.80;100.00
5872;BME280;2962;51.312;7.378;2023-05-08T07:45:23;98015.84;;;13.91;100.00
5872;BME280;2962;51.312;7.378;2023-05-08T07:47:53;98011.19;;;13.91;100.00
5872;BME280;2962;51.312;7.378;2023-05-08T07:50:20;97999.53;;;14.05;100.00
5872;BME280;2962;51.312;7.378;2023-05-08T07:52:45;98000.53;;;13.86;100.00
5872;BME280;2962;51.312;7.378;2023-05-08T07:55:11;98005.44;;;14.07;100.00
5872;BME280;2962;51.312;7.378;2023-05-08T07:57:41;98021.97;;;14.18;100.00
5872;BME280;2962;51.312;7.378;2023-05-08T08:00:08;98013.22;;;14.02;100.00
5872;BME280;2962;51.312;7.378;2023-05-08T08:02:34;98005.63;;;13.84;100.00
5872;BME280;2962;51.312;7.378;2023-05-08T08:04:59;98019.75;;;13.90;100.00
5872;BME280;2962;51.312;7.378;2023-05-08T08:07:25;98027.97;;;13.90;100.00
5872;BME280;2962;51.312;7.378;2023-05-08T08:09:50;98030.75;;;13.93;100.00
5872;BME280;2962;51.312;7.378;2023-05-08T08:12:16;98021.63;;;13.82;100.00
5872;BME280;2962;51.312;7.378;2023-05-08T08:14:42;98029.38;;;13.73;100.00
5872;BME280;2962;51.312;7.378;2023-05-08T08:17:07;98023.31;;;13.57;100.00
5872;BME280;2962;51.312;7.378;2023-05-08T08:19:32;98030.31;;;13.54;100.00
5872;BME280;2962;51.312;7.378;2023-05-08T08:21:58;98033.84;;;13.55;100.00
5872;BME280;2962;51.312;7.378;2023-05-08T08:24:23;98037.53;;;13.36;100.00
5872;BME280;2962;51.312;7.378;2023-05-08T08:26:49;98031.19;;;13.28;100.00
5872;BME280;2962;51.312;7.378;2023-05-08T08:29:14;98040.69;;;13.38;100.00
5872;BME280;2962;51.312;7.378;2023-05-08T08:31:40;98055.03;;;13.28;100.00
5872;BME280;2962;51.312;7.378;2023-05-08T08:34:05;98050.81;;;13.37;100.00
5872;BME280;2962;51.312;7.378;2023-05-08T08:36:30;98050.81;;;13.37;100.00
5872;BME280;2962;51.312;7.378;2023-05-08T08:38:56;98052.09;;;13.43;100.00
5872;BME280;2962;51.312;7.378;2023-05-08T08:41:22;98032.75;;;13.29;100.00
5872;BME280;2962;51.312;7.378;2023-05-08T08:43:48;98045.00;;;13.39;100.00
5872;BME280;2962;51.312;7.378;2023-05-08T08:46:13;98055.66;;;13.48;100.00
5872;BME280;2962;51.312;7.378;2023-05-08T08:48:43;98052.63;;;13.56;100.00
5872;BME280;2962;51.312;7.378;2023-05-08T08:51:22;98044.34;;;13.49;100.00
5872;BME280;2962;51.312;7.378;2023-05-08T08:53:51;98052.72;;;13.63;100.00
5872;BME280;2962;51.312;7.378;2023-05-08T08:56:20;98026.97;;;13.34;100.00
5872;BME280;2962;51.312;7.378;2023-05-08T08:58:49;98053.78;;;13.55;100.00
5872;BME280;2962;51.312;7.378;2023-05-08T09:01:18;98044.41;;;13.56;100.00
5872;BME280;2962;51.312;7.378;2023-05-08T09:03:44;98057.31;;;13.89;100.00
5872;BME280;2962;51.312;7.378;2023-05-08T09:06:10;98048.34;;;13.92;100.00
5872;BME280;2962;51.312;7.378;2023-05-08T09:08:36;98054.72;;;14.04;100.00
5872;BME280;2962;51.312;7.378;2023-05-08T09:11:02;98045.38;;;14.08;100.00
5872;BME280;2962;51.312;7.378;2023-05-08T09:13:28;98057.66;;;14.25;100.00
5872;BME280;2962;51.312;7.378;2023-05-08T09:15:54;98055.31;;;14.24;100.00
5872;BME280;2962;51.312;7.378;2023-05-08T09:18:21;98055.38;;;14.31;100.00
5872;BME280;2962;51.312;7.378;2023-05-08T09:20:46;98056.88;;;14.25;100.00
5872;BME280;2962;51.312;7.378;2023-05-08T09:23:16;98056.13;;;14.28;100.00
5872;BME280;2962;51.312;7.378;2023-05-08T09:25:42;98040.38;;;14.17;100.00
5872;BME280;2962;51.312;7.378;2023-05-08T09:28:17;98058.56;;;14.36;100.00
5872;BME280;2962;51.312;7.378;2023-05-08T09:30:53;98048.44;;;14.44;100.00
5872;BME280;2962;51.312;7.378;2023-05-08T09:33:20;98030.84;;;14.04;100.00
5872;BME280;2962;51.312;7.378;2023-05-08T09:35:46;98049.38;;;14.14;100.00
5872;BME280;2962;51.312;7.378;2023-05-08T09:38:31;98047.88;;;14.24;100.00
5872;BME280;2962;51.312;7.378;2023-05-08T09:41:10;98046.00;;;14.32;100.00
5872;BME280;2962;51.312;7.378;2023-05-08T09:43:37;98051.81;;;14.27;100.00
5872;BME280;2962;51.312;7.378;2023-05-08T09:48:48;98048.38;;;14.37;100.00
5872;BME280;2962;51.312;7.378;2023-05-08T09:51:13;98038.88;;;14.24;100.00
5872;BME280;2962;51.312;7.378;2023-05-08T09:53:38;98043.22;;;14.28;100.00
5872;BME280;2962;51.312;7.378;2023-05-08T09:56:04;98041.81;;;14.04;100.00
5872;BME280;2962;51.312;7.378;2023-05-08T09:58:40;98052.22;;;14.29;100.00
5872;BME280;2962;51.312;7.378;2023-05-08T10:01:07;98045.03;;;14.13;100.00
5872;BME280;2962;51.312;7.378;2023-05-08T10:03:51;98053.03;;;14.33;100.00
5872;BME280;2962;51.312;7.378;2023-05-08T10:06:16;98048.00;;;14.38;100.00
5872;BME280;2962;51.312;7.378;2023-05-08T10:08:41;98053.84;;;14.37;100.00
5872;BME280;2962;51.312;7.378;2023-05-08T10:13:40;98063.16;;;14.25;100.00
5872;BME280;2962;51.312;7.378;2023-05-08T10:16:06;98055.09;;;14.43;100.00
5872;BME280;2962;51.312;7.378;2023-05-08T10:18:36;98038.66;;;14.43;100.00
5872;BME280;2962;51.312;7.378;2023-05-08T10:21:05;98058.25;;;14.49;100.00
5872;BME280;2962;51.312;7.378;2023-05-08T10:23:32;98060.72;;;14.57;100.00
5872;BME280;2962;51.312;7.378;2023-05-08T10:26:06;98045.47;;;14.60;100.00
5872;BME280;2962;51.312;7.378;2023-05-08T10:28:42;98037.69;;;14.65;100.00
5872;BME280;2962;51.312;7.378;2023-05-08T10:31:11;98051.97;;;14.93;100.00
5872;BME280;2962;51.312;7.378;2023-05-08T10:33:39;98049.59;;;14.87;100.00
5872;BME280;2962;51.312;7.378;2023-05-08T10:36:05;98052.38;;;14.95;100.00
5872;BME280;2962;51.312;7.378;2023-05-08T10:38:31;98054.34;;;14.98;100.00
5872;BME280;2962;51.312;7.378;2023-05-08T10:41:00;98042.22;;;15.02;100.00
5872;BME280;2962;51.312;7.378;2023-05-08T10:43:28;98042.28;;;15.13;100.00
5872;BME280;2962;51.312;7.378;2023-05-08T10:45:55;98040.25;;;14.96;100.00
5872;BME280;2962;51.312;7.378;2023-05-08T10:53:37;98041.63;;;15.34;100.00
5872;BME280;2962;51.312;7.378;2023-05-08T10:56:04;98018.91;;;15.44;100.00
5872;BME280;2962;51.312;7.378;2023-05-08T10:58:35;98022.84;;;15.47;100.00
5872;BME280;2962;51.312;7.378;2023-05-08T11:03:30;98028.16;;;16.66;100.00
5872;BME280;2962;51.312;7.378;2023-05-08T11:05:56;98027.34;;;17.01;100.00
5872;BME280;2962;51.312;7.378;2023-05-08T11:08:23;98016.34;;;17.01;100.00
5872;BME280;2962;51.312;7.378;2023-05-08T11:11:13;98014.78;;;17.00;100.00
5872;BME280;2962;51.312;7.378;2023-05-08T11:13:43;98018.38;;;16.76;100.00
5872;BME280;2962;51.312;7.378;2023-05-08T11:16:11;98021.09;;;16.62;100.00
5872;BME280;2962;51.312;7.378;2023-05-08T11:18:37;98018.34;;;16.47;100.00
5872;BME280;2962;51.312;7.378;2023-05-08T11:21:04;98021.09;;;16.65;100.00
5872;BME280;2962;51.312;7.378;2023-05-08T11:23:32;98020.31;;;16.65;100.00
5872;BME280;2962;51.312;7.378;2023-05-08T11:26:02;98011.66;;;16.59;100.00
5872;BME280;2962;51.312;7.378;2023-05-08T11:28:32;98008.13;;;16.62;100.00
5872;BME280;2962;51.312;7.378;2023-05-08T11:31:02;98006.53;;;16.93;100.00
5872;BME280;2962;51.312;7.378;2023-05-08T11:33:30;98004.53;;;17.08;100.00
5872;BME280;2962;51.312;7.378;2023-05-08T11:36:10;98003.34;;;17.13;100.00
5872;BME280;2962;51.312;7.378;2023-05-08T11:38:37;98013.09;;;17.31;100.00
5872;BME280;2962;51.312;7.378;2023-05-08T11:41:10;98011.59;;;17.13;100.00
5872;BME280;2962;51.312;7.378;2023-05-08T11:46:19;98003.78;;;16.72;100.00
5872;BME280;2962;51.312;7.378;2023-05-08T11:48:45;98008.50;;;16.71;100.00
5872;BME280;2962;51.312;7.378;2023-05-08T11:51:11;98011.69;;;16.77;100.00
5872;BME280;2962;51.312;7.378;2023-05-08T11:53:38;98014.00;;;16.64;100.00
5872;BME280;2962;51.312;7.378;2023-05-08T11:56:04;98010.47;;;16.92;100.00
5872;BME280;2962;51.312;7.378;2023-05-08T11:58:30;98017.91;;;17.02;100.00
5872;BME280;2962;51.312;7.378;2023-05-08T12:00:55;98022.66;;;16.91;100.00
5872;BME280;2962;51.312;7.378;2023-05-08T12:03:22;98009.31;;;16.79;100.00
5872;BME280;2962;51.312;7.378;2023-05-08T12:05:55;98006.94;;;16.81;100.00
5872;BME280;2962;51.312;7.378;2023-05-08T12:08:20;98001.03;;;16.82;100.00
5872;BME280;2962;51.312;7.378;2023-05-08T12:13:21;98001.31;;;17.27;100.00
5872;BME280;2962;51.312;7.378;2023-05-08T12:15:52;98003.25;;;17.41;100.00
5872;BME280;2962;51.312;7.378;2023-05-08T12:18:18;97997.69;;;17.45;100.00
5872;BME280;2962;51.312;7.378;2023-05-08T12:20:44;98001.69;;;17.33;100.00
5872;BME280;2962;51.312;7.378;2023-05-08T12:23:10;97996.59;;;17.31;100.00
5872;BME280;2962;51.312;7.378;2023-05-08T12:25:39;97994.94;;;17.48;100.00
5872;BME280;2962;51.312;7.378;2023-05-08T12:28:10;97995.84;;;17.17;100.00
5872;BME280;2962;51.312;7.378;2023-05-08T12:30:36;97999.03;;;17.04;100.00
5872;BME280;2962;51.312;7.378;2023-05-08T12:33:03;97999.00;;;17.15;100.00
5872;BME280;2962;51.312;7.378;2023-05-08T12:35:29;97999.81;;;17.08;100.00
5872;BME280;2962;51.312;7.378;2023-05-08T12:38:00;98001.81;;;16.97;100.00
5872;BME280;2962;51.312;7.378;2023-05-08T12:40:28;97985.16;;;17.37;100.00
5872;BME280;2962;51.312;7.378;2023-05-08T12:42:54;98002.75;;;17.61;100.00
5872;BME280;2962;51.312;7.378;2023-05-08T12:45:21;97988.34;;;18.05;100.00
5872;BME280;2962;51.312;7.378;2023-05-08T12:47:52;97991.75;;;18.23;100.00
5872;BME280;2962;51.312;7.378;2023-05-08T12:50:21;97997.88;;;17.93;100.00
5872;BME280;2962;51.312;7.378;2023-05-08T12:52:47;97983.53;;;18.16;100.00
5872;BME280;2962;51.312;7.378;2023-05-08T12:55:39;97991.56;;;17.93;100.00
5872;BME280;2962;51.312;7.378;2023-05-08T12:58:10;97995.69;;;18.26;100.00
5872;BME280;2962;51.312;7.378;2023-05-08T13:00:41;97984.03;;;18.00;100.00
5872;BME280;2962;51.312;7.378;2023-05-08T13:03:09;97990.53;;;17.65;100.00
5872;BME280;2962;51.312;7.378;2023-05-08T13:05:37;97989.06;;;17.46;100.00
5872;BME280;2962;51.312;7.378;2023-05-08T13:08:06;97986.56;;;17.73;100.00
5872;BME280;2962;51.312;7.378;2023-05-08T13:13:11;97983.88;;;17.59;100.00
5872;BME280;2962;51.312;7.378;2023-05-08T13:15:36;97982.66;;;17.60;100.00
5872;BME280;2962;51.312;7.378;2023-05-08T13:18:01;97992.38;;;17.90;100.00
5872;BME280;2962;51.312;7.378;2023-05-08T13:20:27;97979.84;;;17.74;100.00
5872;BME280;2962;51.312;7.378;2023-05-08T13:22:52;97978.47;;;18.11;100.00
5872;BME280;2962;51.312;7.378;2023-05-08T13:25:18;97979.13;;;18.26;100.00
5872;BME280;2962;51.312;7.378;2023-05-08T13:27:43;97985.50;;;18.16;100.00
5872;BME280;2962;51.312;7.378;2023-05-08T13:30:08;97975.75;;;18.52;100.00
5872;BME280;2962;51.312;7.378;2023-05-08T13:32:34;97971.53;;;18.37;100.00
5872;BME280;2962;51.312;7.378;2023-05-08T13:35:00;97965.22;;;18.85;100.00
5872;BME280;2962;51.312;7.378;2023-05-08T13:37:25;97963.25;;;19.20;100.00
5872;BME280;2962;51.312;7.378;2023-05-08T13:39:50;97970.50;;;18.65;100.00
5872;BME280;2962;51.312;7.378;2023-05-08T13:42:15;97970.06;;;18.74;100.00
5872;BME280;2962;51.312;7.378;2023-05-08T13:44:41;97965.75;;;19.07;100.00